Warszawa, Polska

13:55 CEST dnia 27-maj-2017 (GMT +0200)
Dębe Wielkie | | Change Station

Wysokość 404 ft 52.20 °N, 21.45 °E | Updated 0 second ago

niewielkie zachmurzenie
niewielkie zachmurzenie
69.8 ° F
Odczuwalna 69.8 ° F
Płn.
0.0
Wiatr zmienny Wiatr od PnPnWs
Gusts 0.0 mph

Dziś
Wysoka -- | Niska -- ° F
--% Prawdop. opadów
Wczoraj
Wysoka -- | Niska -- ° F
Precip. -- cali
Ciśnienie 30.21 cali
Widzialność -9999.0 mil
chmury
Punkt rosy 51 ° F
Wilgotność 52%
Opady deszczu 0.00 cali
grubość pokrywy śnieżnej Niedostępne.
4:23 AM 8:39 PM
Powiększający się sierp Księżyca, 4% visible
METAR EPWA 271130Z 34007KT 280V070 CAVOK 22/09 Q1023 NOSIG
Ciśnienie 30.21 cali
Widzialność -9999.0 mil
chmury
Punkt rosy 51 ° F
Wilgotność 52%
Opady deszczu 0.00 cali
grubość pokrywy śnieżnej Niedostępne.
4:23 AM 8:39 PM
Powiększający się sierp Księżyca, 4% visible
METAR EPWA 271130Z 34007KT 280V070 CAVOK 22/09 Q1023 NOSIG

Get Severe Weather Alerts

Thanks for signing up!

Be on the lookout for a verification email in your inbox.

You'll start receiving the daily forecast at 6 AM.

×

10-Day Weather Forecast

×

Almanac

Astronomia

May. 27, 2017 Wschód Zachów
Aktualny czas
Zmierzch cywilny
Zmierzch żeglarski
świt/zmierzch astronomiczny
Księżyc
całkowite oświetlenie
Długość dnia
Tomorrow will be .
, % of the Moon is Illuminated

Dzisiejsze ekstrema

Country Highs Country Lows

Community

WunderPhotos

Category 6

Welcome to Category 6. This is the collective home for Weather Underground's featured writeups by Dr. Jeff Masters (right), Bob Henson (left), Chris Burt, and other regular contributors.

Nearby

Jakość powietrza

  Jakość powietrza czynnik AQ Zanieczyszczenie
Not available.

Głębokość pokrywy śnieżnej

Station Depth n.p.m.

Aktywność sejsmiczna

Miejscowość Distance Mag. Time & Date
Minimum magnitude displayed is 2.5.

Temperatury wody na wybrzeżu

Miejsce Temperatura

Stations

Najbliższa stacja pogodowa

Lokalizacja stacji Temp. czynnik chłodzący wiatru Punkt rosy Wilgotność Wiatr Precip. Wysokość Uaktualniono Typ